Latest Weather Observations for Cape Borda

IDS60801

Issued at 11:01 pm CST Tuesday 28 July 2015 (issued every 30 minutes, with the page automatically refreshed every 10 minutes)

About weather observations | Map of weather stations | Latest weather observations for SA | Other Formats
Station Details ID: 022823 Name: CAPE BORDA Lat: -35.75 Lon: 136.60 Height: 158.0 m
Data from the previous 72 hours. | See also: Recent months at Cape Borda
Date/Time
CST
Temp
°C
App
Temp
°C
Dew
Point
Rel
Hum
%
Delta-T
°C
Wind Press
QNH
hPa
Press
MSL
hPa
Rain
since 9 am
mm
Dir
 
Spd
km/h
Gust
km/h
Spd
kts
Gust
kts
28/11:00pm 10.1 4.0 5.0 70 2.3 NNE 26 39 14 21 1031.3 - 0.4
28/10:30pm 10.1 4.1 5.3 72 2.2 NNE 26 33 14 18 1031.1 - 0.4
28/10:00pm 10.4 4.6 4.3 66 2.7 NNE 24 33 13 18 1031.8 - 0.4
28/09:30pm 10.4 4.6 4.3 66 2.7 N 24 33 13 18 1032.4 - 0.4
28/09:00pm 10.3 5.2 4.0 65 2.8 N 20 30 11 16 1032.8 1033.1 0.4
28/08:30pm 10.3 5.5 4.5 67 2.6 N 19 28 10 15 1033.0 - 0.4
28/08:00pm 10.3 5.4 5.2 70 2.3 N 20 30 11 16 1032.8 - 0.4
28/07:30pm 10.1 5.4 5.0 70 2.3 N 19 28 10 15 1033.1 - 0.4
28/07:00pm 10.1 5.7 5.0 70 2.3 N 17 24 9 13 1033.2 - 0.4
28/06:30pm 10.1 6.2 5.3 72 2.2 N 15 26 8 14 1033.1 - 0.4
28/06:00pm 10.2 6.1 4.4 67 2.6 N 15 20 8 11 1033.1 1033.4 0.4
28/05:30pm 10.2 6.2 5.1 70 2.3 N 15 22 8 12 1033.1 - 0.4
28/05:00pm 10.6 6.3 5.1 69 2.5 N 17 24 9 13 1033.1 - 0.4
28/04:30pm 10.9 6.9 4.9 66 2.7 N 15 22 8 12 1033.2 - 0.4
28/04:00pm 11.5 6.7 4.7 63 3.1 NNW 19 26 10 14 1033.8 - 0.4
28/03:30pm 12.1 7.5 5.4 63 3.1 N 19 26 10 14 1033.7 - 0.4
28/03:00pm 11.8 7.5 5.3 64 3.0 NNW 17 26 9 14 1033.8 1034.1 0.4
28/02:30pm 12.3 8.1 5.9 65 3.0 NW 17 22 9 12 1033.9 - 0.4
28/02:00pm 12.8 8.7 6.3 64 3.1 NNW 17 24 9 13 1033.8 - 0.4
28/01:30pm 12.1 7.6 5.9 66 2.9 NNW 19 24 10 13 1034.4 - 0.4
28/01:00pm 12.3 8.4 6.9 69 2.6 NNW 17 24 9 13 1034.7 - 0.4
28/12:30pm 12.5 8.3 7.6 72 2.4 NNW 19 26 10 14 1035.4 - 0.4
28/12:00pm 12.8 9.7 8.8 76 2.0 NNW 15 20 8 11 1035.8 1036.0 0.4
28/11:30am 11.6 7.7 8.6 82 1.5 NW 19 30 10 16 1036.4 - 0.4
28/11:00am 11.6 8.3 8.1 79 1.7 NNW 15 19 8 10 1036.5 - 0.4
28/10:30am 11.2 7.7 8.6 84 1.3 NW 17 24 9 13 1036.8 - 0.4
28/10:00am 10.4 7.5 8.3 87 1.0 NW 13 19 7 10 1036.6 - 0.4
28/09:30am 9.9 6.8 8.9 93 0.5 WNW 15 20 8 11 1036.6 - 0.4
28/09:00am 10.0 8.0 8.6 91 0.7 WNW 9 15 5 8 1036.3 1036.5 3.2
28/08:30am 9.5 7.3 7.8 89 0.8 N 9 11 5 6 1036.1 - 2.2
28/08:00am 8.6 6.5 6.7 88 0.9 NW 7 11 4 6 1036.0 - 2.2
28/07:30am 7.8 5.7 6.0 88 0.8 W 6 7 3 4 1035.7 - 2.2
28/07:00am 8.8 6.4 6.9 88 0.9 W 9 24 5 13 1035.7 - 2.2
28/06:30am 9.1 6.0 7.2 88 0.9 W 13 19 7 10 1035.8 - 2.2
28/06:00am 9.2 5.7 7.3 88 0.9 W 15 24 8 13 1035.8 1036.0 2.2
28/05:30am 8.4 6.4 7.1 91 0.6 W 7 13 4 7 1035.8 - 2.2
28/05:00am 8.4 5.6 6.9 90 0.7 W 11 20 6 11 1035.5 - 2.2
28/04:30am 8.5 6.1 7.0 90 0.7 WSW 9 13 5 7 1035.4 - 2.2
28/04:00am 8.8 5.7 7.3 90 0.7 WSW 13 19 7 10 1035.4 - 2.2
28/03:30am 8.8 6.5 7.5 91 0.6 WSW 9 11 5 6 1035.3 - 2.2
28/03:00am 8.9 6.7 7.8 93 0.5 WSW 9 13 5 7 1035.4 1035.6 2.2
28/02:30am 8.6 5.7 6.7 88 0.9 WSW 11 15 6 8 1035.4 - 1.8
28/02:00am 7.9 5.7 6.1 88 0.8 WSW 7 9 4 5 1035.1 - 1.8
28/01:30am 8.0 5.4 6.2 88 0.8 WSW 9 13 5 7 1035.2 - 1.8
28/01:00am 8.0 5.1 6.5 90 0.7 WSW 11 15 6 8 1035.2 - 1.8
28/12:30am 8.7 6.0 7.2 90 0.7 WSW 11 15 6 8 1035.3 - 1.8
28/12:00am 8.6 5.6 7.5 93 0.5 SW 13 17 7 9 1035.4 1035.6 1.8
 
Date/Time
CST
Temp
°C
App
Temp
°C
Dew
Point
Rel
Hum
%
Delta-T
°C
Wind Press
QNH
hPa
Press
MSL
hPa
Rain
since 9 am
mm
Dir
 
Spd
km/h
Gust
km/h
Spd
kts
Gust
kts
27/11:30pm 8.3 5.5 7.0 91 0.6 WSW 11 15 6 8 1035.2 - 1.8
27/11:00pm 8.7 5.6 7.4 91 0.6 SW 13 17 7 9 1035.4 - 1.8
27/10:30pm 8.4 5.6 7.1 91 0.6 WSW 11 15 6 8 1035.3 - 1.8
27/10:00pm 8.4 5.6 7.1 91 0.6 SW 11 15 6 8 1035.3 - 1.8
27/09:30pm 8.0 5.2 6.9 93 0.5 SW 11 15 6 8 1035.3 - 1.8
27/09:00pm 9.1 5.3 7.6 90 0.7 SW 17 22 9 12 1035.3 1035.5 1.8
27/08:30pm 9.0 5.9 7.3 89 0.8 WSW 13 20 7 11 1035.3 - 1.8
27/08:00pm 8.7 5.2 7.4 91 0.6 SW 15 20 8 11 1035.3 - 1.8
27/07:30pm 8.8 5.2 6.9 88 0.9 SW 15 19 8 10 1035.0 - 1.8
27/07:00pm 8.9 4.7 7.4 90 0.7 SW 19 24 10 13 1034.9 - 1.8
27/06:30pm 9.2 4.9 7.1 87 1.0 WSW 19 28 10 15 1034.6 - 1.8
27/06:00pm 9.4 6.4 7.5 88 0.9 WSW 13 20 7 11 1034.5 1034.7 1.8
27/05:30pm 9.4 5.5 7.3 87 1.0 WSW 17 26 9 14 1034.6 - 1.8
27/05:00pm 9.8 5.9 7.0 83 1.3 WSW 17 22 9 12 1034.4 - 1.8
27/04:30pm 10.2 5.9 6.8 79 1.6 WSW 19 24 10 13 1034.3 - 1.8
27/04:00pm 10.1 7.6 8.0 87 1.0 SW 11 17 6 9 1034.2 - 1.4
27/03:30pm 11.8 6.6 5.3 64 3.0 WSW 22 28 12 15 1034.2 - 0.0
27/03:00pm 12.2 7.8 6.5 68 2.7 WSW 19 28 10 15 1034.1 1034.3 0.0
27/02:30pm 11.8 7.5 6.8 71 2.4 WSW 19 26 10 14 1033.8 - 0.0
27/02:00pm 10.4 6.3 6.1 75 2.0 W 17 30 9 16 1033.9 - 0.0
27/01:30pm 10.6 6.9 6.3 75 2.0 W 15 24 8 13 1034.1 - 0.0
27/01:00pm 11.0 6.7 5.3 68 2.6 W 17 26 9 14 1034.1 - 0.0
27/12:30pm 11.7 6.8 4.9 63 3.1 WSW 20 26 11 14 1034.3 - 0.0
27/12:00pm 11.6 7.5 4.3 61 3.3 SW 15 26 8 14 1034.3 1034.5 0.0
27/11:30am 10.7 6.1 6.4 75 2.0 WSW 20 28 11 15 1034.7 - 0.0
27/11:00am 10.5 7.2 6.4 76 1.9 SW 13 20 7 11 1034.7 - 0.0
27/10:30am 9.1 4.6 7.0 87 1.0 SW 20 30 11 16 1034.7 - 0.0
27/10:00am 10.9 7.1 5.7 70 2.4 SW 15 22 8 12 1034.4 - 0.0
27/09:30am 10.4 6.2 5.6 72 2.2 SW 17 24 9 13 1034.3 - 0.0
27/09:00am 8.7 6.0 7.2 90 0.7 SW 11 17 6 9 1033.8 1034.1 1.4
27/08:30am 8.6 3.7 6.9 89 0.8 SW 22 35 12 19 1033.5 - 1.2
27/08:00am 7.1 3.5 4.8 85 1.0 S 13 17 7 9 1033.1 - 1.2
27/07:30am 7.4 3.4 4.7 83 1.2 S 15 19 8 10 1032.8 - 1.2
27/07:00am 8.3 3.1 5.4 82 1.3 SSW 22 28 12 15 1032.5 - 1.2
27/06:30am 8.7 3.8 3.9 72 2.1 SSW 19 24 10 13 1032.1 - 1.2
27/06:00am 8.3 3.6 2.9 69 2.3 SW 17 24 9 13 1031.7 1031.9 1.2
27/05:30am 9.0 3.6 2.6 64 2.7 SW 20 30 11 16 1031.3 - 1.2
27/05:00am 9.0 4.3 2.9 65 2.6 SW 17 24 9 13 1031.2 - 1.2
27/04:30am 8.4 3.7 3.0 69 2.3 SW 17 26 9 14 1031.0 - 1.2
27/04:00am 8.5 3.7 4.7 77 1.7 SSW 19 26 10 14 1030.9 - 1.2
27/03:30am 8.5 3.3 3.4 70 2.2 WSW 20 26 11 14 1030.8 - 1.2
27/03:00am 8.1 3.7 4.7 79 1.5 SSW 17 26 9 14 1030.8 1031.0 1.2
27/02:30am 7.6 4.5 5.6 87 0.9 S 11 20 6 11 1030.7 - 1.2
27/02:00am 8.4 3.8 5.8 84 1.2 SSW 19 28 10 15 1030.7 - 1.2
27/01:30am 8.2 3.4 2.5 67 2.4 SSW 17 24 9 13 1030.4 - 1.2
27/01:00am 8.3 2.5 4.2 75 1.8 SW 24 32 13 17 1030.3 - 1.2
27/12:30am 6.6 2.5 4.5 86 0.9 S 15 20 8 11 1030.2 - 1.2
27/12:00am 7.3 3.3 5.0 85 1.0 S 15 20 8 11 1030.3 1030.5 1.2
 
Date/Time
CST
Temp
°C
App
Temp
°C
Dew
Point
Rel
Hum
%
Delta-T
°C
Wind Press
QNH
hPa
Press
MSL
hPa
Rain
since 9 am
mm
Dir
 
Spd
km/h
Gust
km/h
Spd
kts
Gust
kts
26/11:30pm 8.4 3.4 4.5 76 1.7 SW 20 30 11 16 1030.1 - 1.2
26/11:00pm 8.4 3.8 3.5 71 2.1 SSW 17 22 9 12 1029.9 - 1.2
26/10:30pm 8.0 2.9 3.0 71 2.1 SSW 19 26 10 14 1029.7 - 1.2
26/10:00pm 6.9 2.5 4.6 85 1.0 SSW 17 20 9 11 1029.5 - 1.2
26/09:30pm 7.1 2.5 5.8 91 0.6 S 19 26 10 14 1029.4 - 1.2
26/09:00pm 7.7 3.2 4.0 77 1.6 SSW 17 22 9 12 1029.0 1029.2 1.0
26/08:30pm 7.0 2.5 4.0 81 1.3 SSW 17 22 9 12 1028.6 - 1.0
26/08:00pm 7.2 2.3 4.9 85 1.0 S 20 26 11 14 1028.3 - 1.0
26/07:30pm 7.5 3.3 5.7 88 0.8 SSW 17 24 9 13 1027.9 - 1.0
26/07:00pm 7.3 1.3 5.3 87 0.9 SSW 26 39 14 21 1027.6 - 1.0
26/06:30pm 7.6 2.3 5.1 84 1.1 SW 22 30 12 16 1027.1 - 0.8
26/06:00pm 8.1 3.6 4.0 75 1.8 SSW 17 26 9 14 1026.6 1026.8 0.0
26/05:30pm 8.5 2.5 3.1 69 2.3 SW 24 35 13 19 1026.2 - 0.0
26/05:00pm 9.1 2.2 4.4 72 2.1 SW 30 48 16 26 1025.7 - 0.0
26/04:58pm 9.3 2.7 4.3 71 2.2 SW 28 48 15 26 1025.7 - 0.0
26/04:30pm 9.6 3.2 3.1 64 2.8 SSW 26 35 14 19 1025.4 - 0.0
26/04:00pm 9.7 3.1 2.1 59 3.2 SW 26 39 14 21 1025.0 - 0.0
26/03:36pm 10.2 3.0 3.1 61 3.1 SW 30 48 16 26 1024.7 - 0.0
26/03:30pm 10.2 3.2 2.2 57 3.4 SW 28 39 15 21 1024.7 - 0.0
26/03:05pm 10.1 3.4 3.5 63 2.9 SW 28 46 15 25 1024.6 - 0.0
26/03:00pm 10.5 4.1 3.4 61 3.1 SW 26 39 14 21 1024.6 1024.8 0.0
26/02:30pm 10.7 2.9 1.7 53 3.8 SW 32 43 17 23 1024.3 - 0.0
26/02:00pm 9.5 0.8 4.3 70 2.3 SW 39 59 21 32 1024.1 - 0.0
26/01:54pm 11.4 3.9 3.5 58 3.5 SW 32 56 17 30 1024.0 - 0.0
26/01:30pm 10.8 3.0 1.5 52 3.9 SW 32 46 17 25 1024.0 - 0.0
26/01:00pm 10.7 3.2 1.1 51 4.0 SW 30 46 16 25 1024.0 - 0.0
26/12:35pm 10.5 2.2 2.3 57 3.5 SW 35 57 19 31 1024.0 - 0.0
26/12:30pm 9.8 1.2 2.5 60 3.1 SW 37 52 20 28 1024.1 - 0.0
26/12:05pm 10.5 2.7 2.9 59 3.3 SW 33 54 18 29 1023.9 - 0.0
26/12:00pm 10.9 3.1 1.7 53 3.9 SW 32 43 17 23 1024.0 1024.2 0.0
26/11:30am 10.5 2.7 2.9 59 3.3 SW 33 48 18 26 1023.8 - 0.0
26/11:06am 10.6 2.4 2.5 57 3.5 SW 35 54 19 29 1023.7 - 0.0
26/11:00am 10.8 2.9 2.1 55 3.7 SW 33 50 18 27 1023.7 - 0.0
26/10:30am 10.3 2.3 1.5 54 3.7 SW 33 54 18 29 1023.3 - 0.0
26/10:21am 10.0 2.1 2.5 59 3.2 SW 33 52 18 28 1023.2 - 0.0
26/10:00am 9.8 1.2 0.2 51 3.9 SW 35 48 19 26 1022.8 - 0.0
26/09:30am 8.9 1.2 2.3 63 2.8 SW 32 46 17 25 1022.4 - 0.0
26/09:07am 8.7 0.4 2.0 63 2.8 SW 35 54 19 29 1021.9 - 0.0
26/09:00am 9.0 0.5 2.9 65 2.6 SW 37 54 20 29 1021.7 1021.9 5.4
26/08:30am 6.8 0.2 4.3 84 1.1 SW 28 46 15 25 1021.6 - 5.4
26/08:07am 8.8 1.0 1.6 60 3.0 WSW 32 54 17 29 1021.1 - 5.2
26/08:00am 8.7 1.3 2.0 63 2.8 SW 30 44 16 24 1021.0 - 5.2
26/07:30am 7.4 -0.1 3.4 76 1.7 SW 32 44 17 24 1020.5 - 5.2
26/07:00am 8.3 -0.8 -0.7 53 3.5 SW 37 57 20 31 1020.0 - 5.2
26/06:36am 7.6 -0.1 3.4 75 1.8 SW 33 52 18 28 1019.5 - 5.2
26/06:30am 7.6 -0.4 3.9 77 1.6 SW 35 52 19 28 1019.3 - 5.2
26/06:08am 8.0 0.4 2.8 70 2.2 SW 32 59 17 32 1018.8 - 5.2
26/06:00am 7.9 -0.7 2.7 69 2.2 SW 37 50 20 27 1018.7 1018.9 5.2
26/05:30am 6.9 -2.7 3.4 78 1.5 WSW 43 72 23 39 1018.7 - 5.0
26/05:00am 8.5 -1.3 -2.8 45 4.2 WSW 39 57 21 31 1017.8 - 5.0
26/04:30am 8.6 -1.0 -1.2 50 3.8 WSW 39 59 21 32 1017.5 - 5.0
26/04:00am 8.7 -1.7 -2.1 46 4.1 SW 43 65 23 35 1017.0 - 5.0
26/03:30am 8.3 -2.0 0.6 58 3.1 SW 44 70 24 38 1016.8 - 5.0
26/03:00am 8.1 -1.8 1.5 63 2.7 WSW 43 65 23 35 1016.6 1016.8 5.0
26/02:41am 6.8 -2.0 3.5 79 1.4 SW 39 57 21 31 1017.0 - 4.8
26/02:39am 6.7 -2.9 3.4 79 1.4 WSW 43 57 23 31 1017.1 - 4.8
26/02:34am 7.6 -6.3 2.6 70 2.1 WSW 65 85 35 46 1016.8 - 4.6
26/02:33am 8.4 -1.0 2.5 66 2.5 WSW 41 80 22 43 1016.7 - 4.6
26/02:31am 8.8 0.0 1.3 59 3.1 WSW 37 57 20 31 1016.8 - 4.6
26/02:30am 8.7 -0.1 1.4 60 3.0 WSW 37 52 20 28 1016.7 - 4.6
26/02:07am 9.1 0.4 2.0 61 3.0 WSW 37 57 20 31 1016.8 - 4.6
26/02:00am 8.7 -0.1 1.2 59 3.1 WSW 37 52 20 28 1016.8 - 4.6
26/01:30am 8.9 -1.5 2.0 62 2.9 WSW 46 65 25 35 1016.7 - 4.6
26/01:02am 8.9 -0.1 2.3 63 2.8 WSW 39 63 21 34 1016.3 - 4.6
26/01:00am 8.8 0.3 3.0 67 2.5 WSW 37 54 20 29 1016.2 - 4.6
26/12:30am 9.2 -0.9 0.6 55 3.5 WSW 43 63 23 34 1016.0 - 4.6
26/12:00am 9.2 -1.1 2.4 62 2.9 WSW 46 65 25 35 1015.8 1015.9 4.6
 
Date/Time
CST
Temp
°C
App
Temp
°C
Dew
Point
Rel
Hum
%
Delta-T
°C
Wind Press
QNH
hPa
Press
MSL
hPa
Rain
since 9 am
mm
Dir
 
Spd
km/h
Gust
km/h
Spd
kts
Gust
kts
25/11:32pm 9.0 1.1 4.3 72 2.1 WSW 35 56 19 30 1015.5 - 4.6
25/11:30pm 9.0 0.9 3.5 68 2.4 WSW 35 52 19 28 1015.5 - 4.6

Other Formats:

Comma delimited format used in spreadsheet applications
http://www.bom.gov.au/fwo/IDS60801/IDS60801.95805.axf

JavaScript Object Notation format (JSON) in row-major order
http://www.bom.gov.au/fwo/IDS60801/IDS60801.95805.json